createdAt,value
2022-08-14T00:01:32.898Z,101488.78
2022-08-14T00:03:59.749Z,101482.31
2022-08-14T00:06:28.956Z,101482.31
2022-08-14T00:08:58.978Z,101489.38
2022-08-14T00:11:28.858Z,101471.16
2022-08-14T00:13:59.848Z,101474.84
2022-08-14T00:16:41.090Z,101475.19
2022-08-14T00:19:19.746Z,101476.19
2022-08-14T00:21:51.770Z,101467.84
2022-08-14T00:24:23.198Z,101482.25
2022-08-14T00:26:57.126Z,101484.09
2022-08-14T00:29:25.697Z,101472.50
2022-08-14T00:31:56.081Z,101486.25
2022-08-14T00:34:36.283Z,101487.63
2022-08-14T00:37:05.687Z,101478.03
2022-08-14T00:39:32.839Z,101488.75
2022-08-14T00:41:59.776Z,101474.91
2022-08-14T00:44:32.242Z,101478.91
2022-08-14T00:47:01.535Z,101468.19
2022-08-14T00:49:31.166Z,101473.63
2022-08-14T00:52:05.473Z,101472.09
2022-08-14T00:54:34.288Z,101467.38
2022-08-14T00:57:02.195Z,101461.72
2022-08-14T00:59:29.045Z,101471.00
2022-08-14T01:01:58.264Z,101466.88
2022-08-14T01:04:37.732Z,101469.50
2022-08-14T01:07:21.522Z,101472.56
2022-08-14T01:09:50.386Z,101462.47
2022-08-14T01:12:27.320Z,101467.59
2022-08-14T01:14:59.770Z,101466.94
2022-08-14T01:17:49.512Z,101456.38
2022-08-14T01:20:35.269Z,101455.56
2022-08-14T01:23:08.948Z,101457.25
2022-08-14T01:25:37.548Z,101463.75
2022-08-14T01:28:06.433Z,101458.06
2022-08-14T01:30:40.003Z,101450.84
2022-08-14T01:33:07.009Z,101456.81
2022-08-14T01:36:04.893Z,101456.00
2022-08-14T01:38:23.248Z,101460.38
2022-08-14T01:40:53.288Z,101455.91
2022-08-14T01:43:22.118Z,101457.06
2022-08-14T01:46:05.999Z,101462.22
2022-08-14T01:48:37.550Z,101457.59
2022-08-14T01:51:19.340Z,101458.44
2022-08-14T01:53:47.987Z,101454.94
2022-08-14T01:56:22.872Z,101449.59
2022-08-14T01:58:57.328Z,101458.34
2022-08-14T02:01:26.671Z,101455.56
2022-08-14T02:03:56.968Z,101452.28
2022-08-14T02:06:32.284Z,101456.28
2022-08-14T02:09:02.485Z,101448.53
2022-08-14T02:11:31.269Z,101455.66
2022-08-14T02:14:06.712Z,101454.00
2022-08-14T02:16:39.437Z,101442.97
2022-08-14T02:19:09.086Z,101453.72
2022-08-14T02:21:43.665Z,101443.31
2022-08-14T02:24:40.135Z,101451.56
2022-08-14T02:28:21.921Z,101449.44
2022-08-14T02:29:59.987Z,101453.75
2022-08-14T02:32:30.458Z,101435.25
2022-08-14T02:35:10.415Z,101440.84
2022-08-14T02:37:47.937Z,101434.38
2022-08-14T02:40:18.663Z,101432.44
2022-08-14T02:42:54.950Z,101424.66
2022-08-14T02:45:38.775Z,101431.09
2022-08-14T02:49:04.364Z,101406.00
2022-08-14T02:51:00.506Z,101433.09
2022-08-14T02:53:31.514Z,101424.66
2022-08-14T02:56:03.338Z,101426.63
2022-08-14T02:58:41.916Z,101429.94
2022-08-14T03:01:09.680Z,101420.69
2022-08-14T03:03:38.992Z,101428.28
2022-08-14T03:06:06.689Z,101429.63
2022-08-14T03:08:37.887Z,101425.34
2022-08-14T03:11:09.506Z,101432.28
2022-08-14T03:13:37.950Z,101426.31
2022-08-14T03:16:09.304Z,101431.13
2022-08-14T03:18:48.450Z,101424.16
2022-08-14T03:21:20.905Z,101421.84
2022-08-14T03:23:51.404Z,101417.06
2022-08-14T03:26:30.306Z,101414.91
2022-08-14T03:29:01.350Z,101424.34
2022-08-14T03:31:29.419Z,101417.91
2022-08-14T03:33:59.893Z,101419.88
2022-08-14T03:37:37.937Z,101416.22
2022-08-14T03:39:24.257Z,101421.84
2022-08-14T03:41:55.913Z,101421.03
2022-08-14T03:45:27.769Z,101423.47
2022-08-14T03:47:15.290Z,101422.81
2022-08-14T03:49:44.073Z,101425.50
2022-08-14T03:52:37.561Z,101419.19
2022-08-14T03:55:00.349Z,101406.81
2022-08-14T03:57:32.857Z,101417.47
2022-08-14T04:00:13.922Z,101406.06
2022-08-14T04:02:58.439Z,101410.03
2022-08-14T04:05:25.326Z,101412.00
2022-08-14T04:08:08.452Z,101396.19
2022-08-14T04:10:39.565Z,101393.59
2022-08-14T04:13:06.525Z,101388.53
2022-08-14T04:15:56.416Z,101386.38
2022-08-14T04:18:21.567Z,101388.72
2022-08-14T04:20:54.642Z,101382.38
2022-08-14T04:23:23.316Z,101376.63
2022-08-14T04:25:54.052Z,101377.78
2022-08-14T04:29:01.658Z,101374.19
2022-08-14T04:31:07.787Z,101382.38
2022-08-14T04:33:36.408Z,101375.91
2022-08-14T04:36:03.872Z,101380.47
2022-08-14T04:38:49.525Z,101373.59
2022-08-14T04:41:35.207Z,101381.84
2022-08-14T04:44:05.047Z,101374.97
2022-08-14T04:46:56.518Z,101369.25
2022-08-14T04:49:22.566Z,101359.41
2022-08-14T04:51:55.841Z,101358.38
2022-08-14T04:54:26.951Z,101365.38
2022-08-14T04:56:56.189Z,101361.22
2022-08-14T04:59:23.687Z,101360.78
2022-08-14T05:01:56.359Z,101354.34
2022-08-14T05:04:25.052Z,101356.75
2022-08-14T05:06:53.441Z,101359.50
2022-08-14T05:09:21.585Z,101355.09
2022-08-14T05:11:51.484Z,101354.16
2022-08-14T05:14:46.953Z,101359.03
2022-08-14T05:17:11.546Z,101360.94
2022-08-14T05:19:44.741Z,101366.81
2022-08-14T05:22:27.174Z,101364.09
2022-08-14T05:24:54.171Z,101363.78
2022-08-14T05:27:22.730Z,101356.38
2022-08-14T05:29:57.093Z,101349.28
2022-08-14T05:32:27.734Z,101349.13
2022-08-14T05:34:58.493Z,101356.41
2022-08-14T05:37:27.284Z,101364.41
2022-08-14T05:39:55.324Z,101357.84
2022-08-14T05:42:29.061Z,101343.28
2022-08-14T05:44:56.407Z,101359.94
2022-08-14T05:47:24.326Z,101349.78
2022-08-14T05:49:58.309Z,101369.28
2022-08-14T05:52:38.610Z,101357.41
2022-08-14T05:55:11.267Z,101343.94
2022-08-14T05:58:04.806Z,101351.03
2022-08-14T06:00:39.504Z,101350.66
2022-08-14T06:03:11.306Z,101348.72
2022-08-14T06:05:39.048Z,101348.75
2022-08-14T06:08:08.767Z,101344.44
2022-08-14T06:10:52.566Z,101348.19
2022-08-14T06:13:19.507Z,101344.00
2022-08-14T06:15:46.887Z,101339.44
2022-08-14T06:18:17.477Z,101350.28
2022-08-14T06:20:44.573Z,101337.91
2022-08-14T06:23:13.227Z,101343.38
2022-08-14T06:25:41.525Z,101346.38
2022-08-14T06:28:27.279Z,101339.34
2022-08-14T06:30:55.347Z,101337.91
2022-08-14T06:33:22.650Z,101338.69
2022-08-14T06:35:49.950Z,101340.44
2022-08-14T06:38:21.598Z,101339.09
2022-08-14T06:40:51.566Z,101336.31
2022-08-14T06:43:20.911Z,101335.28
2022-08-14T06:45:53.713Z,101321.66
2022-08-14T06:48:25.007Z,101331.53
2022-08-14T06:50:54.888Z,101335.00
2022-08-14T06:53:22.406Z,101333.94
2022-08-14T06:56:00.890Z,101332.59
2022-08-14T06:58:30.745Z,101328.69
2022-08-14T07:01:20.336Z,101327.16
2022-08-14T07:04:22.461Z,101334.38
2022-08-14T07:06:50.174Z,101338.50
2022-08-14T07:09:22.656Z,101327.25
2022-08-14T07:11:51.857Z,101342.81
2022-08-14T07:14:18.831Z,101330.69
2022-08-14T07:16:45.658Z,101314.63
2022-08-14T07:19:12.519Z,101324.13
2022-08-14T07:21:39.793Z,101317.69
2022-08-14T07:24:09.616Z,101307.94
2022-08-14T07:26:49.179Z,101307.50
2022-08-14T07:29:17.401Z,101308.03
2022-08-14T07:31:44.900Z,101319.66
2022-08-14T07:34:13.395Z,101314.00
2022-08-14T07:37:01.086Z,101316.16
2022-08-14T07:39:28.530Z,101314.53
2022-08-14T07:41:55.435Z,101311.28
2022-08-14T07:44:32.902Z,101313.09
2022-08-14T07:47:03.716Z,101308.81
2022-08-14T07:49:32.509Z,101312.56
2022-08-14T07:52:00.076Z,101320.63
2022-08-14T07:54:30.024Z,101309.78
2022-08-14T07:56:59.702Z,101312.28
2022-08-14T07:59:42.701Z,101302.25
2022-08-14T08:02:19.626Z,101303.91
2022-08-14T08:04:54.013Z,101311.72
2022-08-14T08:07:21.945Z,101312.50
2022-08-14T08:09:56.562Z,101306.69
2022-08-14T08:12:30.178Z,101316.25
2022-08-14T08:15:05.577Z,101309.63
2022-08-14T08:17:38.493Z,101315.56
2022-08-14T08:20:11.600Z,101310.84
2022-08-14T08:22:40.940Z,101305.59
2022-08-14T08:25:13.688Z,101302.63
2022-08-14T08:27:44.721Z,101299.56
2022-08-14T08:30:12.560Z,101302.00
2022-08-14T08:32:41.832Z,101288.19
2022-08-14T08:35:25.852Z,101291.38
2022-08-14T08:39:18.418Z,101290.28
2022-08-14T08:41:02.834Z,101294.34
2022-08-14T08:43:32.695Z,101297.34
2022-08-14T08:46:23.914Z,101295.56
2022-08-14T08:51:30.961Z,101288.19
2022-08-14T08:54:10.754Z,101292.59
2022-08-14T08:56:48.737Z,101292.34
2022-08-14T08:59:34.611Z,101285.91
2022-08-14T09:02:10.129Z,101272.84
2022-08-14T09:04:45.776Z,101277.69
2022-08-14T09:07:26.831Z,101272.53
2022-08-14T09:09:59.531Z,101272.44
2022-08-14T09:12:32.339Z,101281.75
2022-08-14T09:15:08.987Z,101275.75
2022-08-14T09:17:41.210Z,101277.75
2022-08-14T09:20:11.635Z,101268.22
2022-08-14T09:22:42.636Z,101264.94
2022-08-14T09:25:15.034Z,101265.38
2022-08-14T09:27:42.171Z,101262.88
2022-08-14T09:30:31.655Z,101250.78
2022-08-14T09:33:08.924Z,101253.09
2022-08-14T09:35:57.165Z,101245.25
2022-08-14T09:38:27.384Z,101237.75
2022-08-14T09:41:00.725Z,101233.09
2022-08-14T09:43:42.558Z,101227.22
2022-08-14T09:46:09.693Z,101227.53
2022-08-14T09:48:37.985Z,101220.44
2022-08-14T09:54:18.949Z,101232.81
2022-08-14T09:56:56.651Z,101228.66
2022-08-14T09:59:26.706Z,101223.41
2022-08-14T10:01:57.322Z,101216.44
2022-08-14T10:04:33.875Z,101221.44
2022-08-14T10:07:08.077Z,101222.53
2022-08-14T10:10:00.158Z,101215.31
2022-08-14T10:12:53.198Z,101214.03
2022-08-14T10:15:27.868Z,101216.59
2022-08-14T10:18:17.447Z,101200.16
2022-08-14T10:20:58.864Z,101201.75
2022-08-14T10:23:30.133Z,101204.00
2022-08-14T10:26:06.616Z,101205.63
2022-08-14T10:29:18.584Z,101201.09
2022-08-14T10:31:44.666Z,101191.53
2022-08-14T10:34:14.024Z,101190.72
2022-08-14T10:36:44.831Z,101201.13
2022-08-14T10:39:27.103Z,101182.50
2022-08-14T10:42:16.483Z,101188.56
2022-08-14T10:44:52.607Z,101185.56
2022-08-14T10:47:39.281Z,101178.16
2022-08-14T10:50:07.824Z,101183.81
2022-08-14T10:52:42.223Z,101184.03
2022-08-14T10:55:16.752Z,101184.78
2022-08-14T10:57:52.922Z,101181.19
2022-08-14T11:00:29.843Z,101180.59
2022-08-14T11:03:11.181Z,101166.97
2022-08-14T11:05:46.234Z,101178.16
2022-08-14T11:08:15.470Z,101168.72
2022-08-14T11:10:56.705Z,101165.00
2022-08-14T11:13:28.809Z,101164.97
2022-08-14T11:16:02.588Z,101171.06
2022-08-14T11:18:36.300Z,101161.81
2022-08-14T11:21:08.325Z,101159.72
2022-08-14T11:23:39.699Z,101164.69
2022-08-14T11:26:08.831Z,101162.38
2022-08-14T11:28:47.604Z,101152.31
2022-08-14T11:31:23.798Z,101149.25
2022-08-14T11:33:58.200Z,101143.19
2022-08-14T11:37:02.834Z,101148.16
2022-08-14T11:39:23.168Z,101143.88
2022-08-14T11:42:55.184Z,101150.56
2022-08-14T11:44:53.827Z,101128.41
2022-08-14T11:47:26.676Z,101138.03
2022-08-14T11:50:11.359Z,101142.00
2022-08-14T11:52:40.632Z,101138.78
2022-08-14T11:55:12.856Z,101136.50
2022-08-14T11:57:41.119Z,101120.16
2022-08-14T12:00:31.457Z,101122.22
2022-08-14T12:03:03.268Z,101121.06
2022-08-14T12:05:36.561Z,101123.72
2022-08-14T12:08:12.052Z,101121.66
2022-08-14T12:10:42.738Z,101125.78
2022-08-14T12:13:20.134Z,101116.22
2022-08-14T12:16:06.234Z,101128.19
2022-08-14T12:18:41.794Z,101115.25
2022-08-14T12:21:15.911Z,101120.53
2022-08-14T12:23:47.596Z,101109.84
2022-08-14T12:26:39.147Z,101110.09
2022-08-14T12:29:14.517Z,101106.38
2022-08-14T12:31:44.546Z,101116.03
2022-08-14T12:34:15.015Z,101104.13
2022-08-14T12:36:47.757Z,101096.84
2022-08-14T12:39:23.809Z,101098.63
2022-08-14T12:41:57.258Z,101087.75
2022-08-14T12:44:35.342Z,101076.56
2022-08-14T12:47:06.224Z,101089.84
2022-08-14T12:49:34.294Z,101081.59
2022-08-14T12:52:02.883Z,101072.31
2022-08-14T12:54:32.422Z,101076.97
2022-08-14T12:57:19.480Z,101069.69
2022-08-14T12:59:47.293Z,101069.91
2022-08-14T13:02:25.486Z,101069.28
2022-08-14T13:04:58.003Z,101066.06
2022-08-14T13:07:32.183Z,101057.75
2022-08-14T13:10:00.248Z,101055.03
2022-08-14T13:12:33.663Z,101044.84
2022-08-14T13:15:08.949Z,101038.59
2022-08-14T13:17:48.278Z,101033.63
2022-08-14T13:20:24.435Z,101029.06
2022-08-14T13:22:52.791Z,101025.25
2022-08-14T13:25:24.533Z,101021.91
2022-08-14T13:27:57.958Z,101029.13
2022-08-14T13:30:25.315Z,101029.50
2022-08-14T13:32:57.979Z,101018.38
2022-08-14T13:35:25.316Z,101024.13
2022-08-14T13:37:53.466Z,101021.72
2022-08-14T13:40:26.600Z,101009.50
2022-08-14T13:42:57.316Z,101001.75
2022-08-14T13:45:33.652Z,100992.91
2022-08-14T13:48:32.828Z,100995.47
2022-08-14T13:51:01.750Z,100990.53
2022-08-14T13:53:33.105Z,100988.84
2022-08-14T13:56:00.406Z,100987.91
2022-08-14T13:58:33.971Z,100991.53
2022-08-14T14:01:01.559Z,100978.91
2022-08-14T14:03:30.276Z,100981.75
2022-08-14T14:05:58.697Z,100974.09
2022-08-14T14:08:46.183Z,100971.38
2022-08-14T14:11:15.765Z,100973.38
2022-08-14T14:13:46.765Z,100967.22
2022-08-14T14:16:15.078Z,100961.19
2022-08-14T14:18:56.043Z,100962.56
2022-08-14T14:21:24.499Z,100955.34
2022-08-14T14:23:53.477Z,100956.31
2022-08-14T14:26:23.870Z,100952.41
2022-08-14T14:28:52.693Z,100949.56
2022-08-14T14:31:30.347Z,100946.72
2022-08-14T14:34:07.435Z,100938.03
2022-08-14T14:36:50.188Z,100935.72
2022-08-14T14:39:22.055Z,100930.47
2022-08-14T14:41:56.045Z,100924.38
2022-08-14T14:44:24.839Z,100926.03
2022-08-14T14:46:53.719Z,100937.28
2022-08-14T14:49:21.865Z,100923.84
2022-08-14T14:51:51.489Z,100923.84
2022-08-14T14:54:31.103Z,100921.50
2022-08-14T14:57:04.675Z,100920.09
2022-08-14T14:59:37.848Z,100926.97
2022-08-14T15:02:07.859Z,100924.97
2022-08-14T15:04:38.191Z,100917.47
2022-08-14T15:07:05.718Z,100913.69
2022-08-14T15:09:33.752Z,100915.34
2022-08-14T15:12:00.814Z,100914.31
2022-08-14T15:14:54.859Z,100915.13
2022-08-14T15:17:21.065Z,100917.59
2022-08-14T15:19:56.985Z,100924.81
2022-08-14T15:22:25.277Z,100923.63
2022-08-14T15:24:52.368Z,100923.66
2022-08-14T15:27:26.199Z,100923.09
2022-08-14T15:29:53.614Z,100936.53
2022-08-14T15:32:23.249Z,100942.91
2022-08-14T15:34:52.902Z,100948.94
2022-08-14T15:37:22.209Z,100956.44
2022-08-14T15:39:50.448Z,100958.28
2022-08-14T15:42:22.519Z,100961.47
2022-08-14T15:44:58.301Z,100968.09
2022-08-14T15:47:29.929Z,100958.22
2022-08-14T15:50:01.631Z,100961.78
2022-08-14T15:52:32.700Z,100959.34
2022-08-14T15:55:04.309Z,100952.47
2022-08-14T15:57:32.082Z,100948.91
2022-08-14T16:00:37.784Z,100933.69
2022-08-14T16:03:04.496Z,100927.13
2022-08-14T16:05:38.115Z,100934.13
2022-08-14T16:08:29.365Z,100937.13
2022-08-14T16:10:56.143Z,100940.50
2022-08-14T16:13:42.023Z,100941.56
2022-08-14T16:16:49.741Z,100946.59
2022-08-14T16:18:59.065Z,100927.41
2022-08-14T16:21:31.527Z,100930.53
2022-08-14T16:23:59.800Z,100930.63
2022-08-14T16:26:29.374Z,100919.06
2022-08-14T16:29:07.541Z,100915.50
2022-08-14T16:31:37.858Z,100920.91
2022-08-14T16:34:43.680Z,100925.69
2022-08-14T16:36:53.466Z,100918.97
2022-08-14T16:39:20.351Z,100924.28
2022-08-14T16:41:51.238Z,100914.97
2022-08-14T16:44:21.592Z,100962.88
2022-08-14T16:46:58.455Z,100982.66
2022-08-14T16:50:03.380Z,100989.31
2022-08-14T16:52:25.813Z,100992.50
2022-08-14T16:55:00.637Z,101002.63
2022-08-14T16:57:28.213Z,100997.97
2022-08-14T16:59:59.757Z,101005.53
2022-08-14T17:02:34.773Z,101008.44
2022-08-14T17:05:20.968Z,100993.47
2022-08-14T17:08:32.281Z,100990.19
2022-08-14T17:10:53.197Z,101014.38
2022-08-14T17:13:21.024Z,101004.31
2022-08-14T17:16:25.535Z,101015.25
2022-08-14T17:19:01.051Z,101017.06
2022-08-14T17:21:31.760Z,101011.34
2022-08-14T17:24:55.995Z,101001.06
2022-08-14T17:27:04.315Z,100988.66
2022-08-14T17:29:54.540Z,100983.63
2022-08-14T17:32:29.398Z,100974.06
2022-08-14T17:35:12.046Z,100977.81
2022-08-14T17:37:46.151Z,100983.84
2022-08-14T17:40:19.074Z,100988.22
2022-08-14T17:42:46.599Z,101004.00
2022-08-14T17:45:43.151Z,101000.56
2022-08-14T17:49:15.595Z,101010.00
2022-08-14T17:51:24.054Z,101002.00
2022-08-14T17:54:02.639Z,100990.56
2022-08-14T17:56:34.015Z,100984.81
2022-08-14T17:59:04.916Z,100987.31
2022-08-14T18:01:35.724Z,100981.75
2022-08-14T18:04:05.672Z,100983.84
2022-08-14T18:06:58.763Z,100974.63
2022-08-14T18:09:40.634Z,100967.84
2022-08-14T18:12:31.854Z,100961.09
2022-08-14T18:15:14.575Z,100953.09
2022-08-14T18:17:52.626Z,100951.47
2022-08-14T18:21:24.200Z,100956.81
2022-08-14T18:23:07.678Z,100955.16
2022-08-14T18:25:49.219Z,100957.44
2022-08-14T18:28:18.351Z,100958.44
2022-08-14T18:31:43.672Z,100963.16
2022-08-14T18:34:12.250Z,100966.88
2022-08-14T18:37:00.420Z,100970.75
2022-08-14T18:40:01.591Z,100958.47
2022-08-14T18:42:23.882Z,100957.84
2022-08-14T18:44:51.124Z,100954.56
2022-08-14T18:47:22.835Z,100946.16
2022-08-14T18:49:57.885Z,100951.25
2022-08-14T18:52:33.380Z,100945.75
2022-08-14T18:55:20.776Z,100944.91
2022-08-14T18:58:27.444Z,100941.22
2022-08-14T19:00:54.697Z,100946.16
2022-08-14T19:03:33.856Z,100938.16
2022-08-14T19:06:02.056Z,100933.03
2022-08-14T19:08:45.503Z,100935.09
2022-08-14T19:11:37.704Z,100930.16
2022-08-14T19:14:05.812Z,100934.28
2022-08-14T19:16:35.062Z,100946.53
2022-08-14T19:19:03.834Z,100936.94
2022-08-14T19:21:41.052Z,100942.44
2022-08-14T19:24:29.333Z,100941.03
2022-08-14T19:27:23.984Z,100959.84
2022-08-14T19:30:03.955Z,100954.09
2022-08-14T19:32:39.779Z,100960.47
2022-08-14T19:35:18.591Z,100964.97
2022-08-14T19:37:52.764Z,100965.97
2022-08-14T19:40:37.694Z,100960.22
2022-08-14T19:43:06.667Z,100965.53
2022-08-14T19:45:36.219Z,100959.59
2022-08-14T19:48:05.299Z,100961.06
2022-08-14T19:50:38.984Z,100966.56
2022-08-14T19:53:17.304Z,100961.63
2022-08-14T19:55:54.857Z,100961.84
2022-08-14T19:58:30.098Z,100959.81
2022-08-14T20:00:58.472Z,100962.66
2022-08-14T20:03:25.817Z,100958.75
2022-08-14T20:06:12.859Z,100949.31
2022-08-14T20:09:05.824Z,100967.34
2022-08-14T20:12:00.830Z,100965.69
2022-08-14T20:14:29.884Z,100971.44
2022-08-14T20:17:06.222Z,100966.69
2022-08-14T20:19:38.062Z,100965.47
2022-08-14T20:22:36.291Z,100964.63
2022-08-14T20:24:56.519Z,100964.44
2022-08-14T20:27:33.629Z,100958.28
2022-08-14T20:30:33.463Z,100958.22
2022-08-14T20:33:07.716Z,100953.91
2022-08-14T20:35:37.897Z,100955.97
2022-08-14T20:38:29.397Z,100950.84
2022-08-14T20:41:00.883Z,100960.44
2022-08-14T20:43:47.320Z,100960.88
2022-08-14T20:46:30.103Z,100953.28
2022-08-14T20:49:19.302Z,100962.25
2022-08-14T20:52:00.070Z,100948.94
2022-08-14T20:54:34.492Z,100946.06
2022-08-14T20:57:10.188Z,100950.56
2022-08-14T20:59:43.444Z,100946.03
2022-08-14T21:02:29.403Z,100952.38
2022-08-14T21:05:02.625Z,100947.22
2022-08-14T21:07:37.396Z,100949.28
2022-08-14T21:10:34.146Z,100949.47
2022-08-14T21:13:26.067Z,100953.97
2022-08-14T21:15:57.915Z,100947.22
2022-08-14T21:18:30.609Z,100949.44
2022-08-14T21:21:00.004Z,100953.88
2022-08-14T21:23:32.480Z,100948.13
2022-08-14T21:26:00.117Z,100953.03
2022-08-14T21:28:29.953Z,100939.91
2022-08-14T21:30:58.216Z,100946.41
2022-08-14T21:33:25.158Z,100947.22
2022-08-14T21:35:55.531Z,100948.41
2022-08-14T21:38:33.870Z,100941.47
2022-08-14T21:41:41.860Z,100939.75
2022-08-14T21:44:18.299Z,100940.41
2022-08-14T21:46:55.034Z,100939.94
2022-08-14T21:49:37.598Z,100934.41
2022-08-14T21:52:50.398Z,100933.75
2022-08-14T21:54:55.838Z,100940.91
2022-08-14T21:57:56.143Z,100949.06
2022-08-14T22:00:30.184Z,100941.50
2022-08-14T22:03:02.170Z,100939.22
2022-08-14T22:05:29.739Z,100927.97
2022-08-14T22:07:57.822Z,100937.63
2022-08-14T22:10:24.639Z,100930.63
2022-08-14T22:13:00.949Z,100940.22
2022-08-14T22:15:28.438Z,100931.66
2022-08-14T22:17:55.490Z,100933.88
2022-08-14T22:20:24.574Z,100926.06
2022-08-14T22:22:55.983Z,100918.69
2022-08-14T22:25:23.455Z,100918.91
2022-08-14T22:28:02.058Z,100921.13
2022-08-14T22:30:29.301Z,100914.72
2022-08-14T22:32:58.444Z,100909.38
2022-08-14T22:35:28.046Z,100915.88
2022-08-14T22:38:36.074Z,100906.28
2022-08-14T22:41:01.866Z,100899.97
2022-08-14T22:43:31.188Z,100881.91
2022-08-14T22:46:02.419Z,100897.69
2022-08-14T22:48:29.682Z,100900.16
2022-08-14T22:50:56.616Z,100888.28
2022-08-14T22:53:24.499Z,100887.06
2022-08-14T22:55:56.825Z,100892.34
2022-08-14T22:58:31.739Z,100879.25
2022-08-14T23:01:04.582Z,100890.06
2022-08-14T23:03:34.836Z,100882.22
2022-08-14T23:07:03.097Z,100883.25
2022-08-14T23:09:01.732Z,100876.84
2022-08-14T23:11:40.034Z,100873.28
2022-08-14T23:14:12.238Z,100873.06
2022-08-14T23:16:39.376Z,100878.44
2022-08-14T23:19:11.615Z,100875.84
2022-08-14T23:21:39.677Z,100866.25
2022-08-14T23:24:14.096Z,100866.00
2022-08-14T23:26:49.540Z,100871.81
2022-08-14T23:29:21.024Z,100868.16
2022-08-14T23:31:48.478Z,100868.28
2022-08-14T23:34:20.830Z,100869.09
2022-08-14T23:36:53.340Z,100857.75
2022-08-14T23:39:30.347Z,100848.97
2022-08-14T23:42:04.276Z,100860.09
2022-08-14T23:44:32.219Z,100859.59
2022-08-14T23:47:05.483Z,100857.88
2022-08-14T23:49:56.908Z,100857.34
2022-08-14T23:52:55.680Z,100862.16
2022-08-14T23:55:11.935Z,100868.28
2022-08-14T23:57:43.610Z,100854.38
